createdAt,value
2023-05-04T00:00:55.821Z,4.10
2023-05-04T00:01:58.193Z,3.90
2023-05-04T00:03:00.629Z,4.53
2023-05-04T00:04:03.793Z,3.42
2023-05-04T00:05:07.362Z,4.68
2023-05-04T00:06:09.698Z,3.53
2023-05-04T00:07:12.295Z,3.85
2023-05-04T00:08:14.605Z,3.67
2023-05-04T00:09:17.072Z,4.03
2023-05-04T00:10:19.463Z,4.38
2023-05-04T00:11:22.225Z,3.70
2023-05-04T00:12:24.495Z,3.45
2023-05-04T00:13:26.891Z,3.25
2023-05-04T00:14:29.132Z,3.40
2023-05-04T00:15:31.453Z,3.38
2023-05-04T00:16:35.358Z,3.10
2023-05-04T00:17:38.015Z,3.42
2023-05-04T00:18:40.421Z,3.20
2023-05-04T00:19:44.793Z,3.38
2023-05-04T00:20:47.269Z,3.80
2023-05-04T00:21:49.511Z,3.47
2023-05-04T00:22:51.823Z,3.45
2023-05-04T00:23:54.100Z,3.17
2023-05-04T00:24:56.392Z,3.45
2023-05-04T00:25:59.626Z,3.53
2023-05-04T00:27:02.419Z,4.07
2023-05-04T00:28:05.257Z,3.58
2023-05-04T00:29:07.525Z,4.65
2023-05-04T00:30:11.296Z,3.60
2023-05-04T00:31:15.069Z,3.88
2023-05-04T00:32:17.445Z,4.95
2023-05-04T00:33:19.732Z,3.45
2023-05-04T00:34:22.043Z,3.75
2023-05-04T00:35:25.264Z,4.53
2023-05-04T00:36:27.653Z,4.80
2023-05-04T00:37:29.936Z,4.85
2023-05-04T00:38:51.810Z,4.68
2023-05-04T00:39:54.180Z,5.13
2023-05-04T00:40:58.028Z,4.53
2023-05-04T00:42:00.299Z,4.25
2023-05-04T00:43:02.756Z,3.65
2023-05-04T00:44:06.630Z,3.72
2023-05-04T00:45:09.154Z,3.38
2023-05-04T00:46:12.353Z,4.53
2023-05-04T00:47:16.889Z,4.30
2023-05-04T00:48:19.580Z,3.33
2023-05-04T00:49:22.450Z,3.53
2023-05-04T00:50:26.305Z,4.80
2023-05-04T00:51:30.084Z,4.50
2023-05-04T00:52:32.429Z,5.10
2023-05-04T00:53:36.825Z,5.80
2023-05-04T00:54:39.380Z,4.15
2023-05-04T00:55:41.680Z,4.50
2023-05-04T00:56:44.079Z,6.38
2023-05-04T00:57:46.818Z,5.75
2023-05-04T00:58:49.245Z,4.93
2023-05-04T00:59:52.709Z,5.28
2023-05-04T01:00:55.330Z,5.72
2023-05-04T01:01:57.626Z,4.18
2023-05-04T01:03:00.024Z,4.03
2023-05-04T01:04:02.821Z,5.82
2023-05-04T01:05:05.670Z,4.38
2023-05-04T01:06:15.197Z,5.88
2023-05-04T01:07:29.798Z,4.70
2023-05-04T01:08:34.862Z,4.03
2023-05-04T01:09:49.839Z,4.20
2023-05-04T01:11:01.564Z,3.65
2023-05-04T01:12:27.534Z,4.93
2023-05-04T01:13:34.061Z,4.63
2023-05-04T01:14:39.043Z,4.00
2023-05-04T01:15:42.989Z,4.57
2023-05-04T01:16:45.390Z,4.13
2023-05-04T01:17:47.764Z,3.53
2023-05-04T01:18:50.129Z,4.30
2023-05-04T01:19:54.186Z,3.63
2023-05-04T01:20:56.626Z,5.43
2023-05-04T01:21:59.205Z,3.53
2023-05-04T01:23:02.290Z,3.95
2023-05-04T01:24:06.345Z,4.20
2023-05-04T01:25:09.268Z,4.03
2023-05-04T01:26:27.169Z,3.85
2023-05-04T01:27:44.999Z,3.15
2023-05-04T01:29:19.460Z,4.50
2023-05-04T01:30:33.097Z,4.13
2023-05-04T01:31:38.286Z,4.28
2023-05-04T01:32:42.284Z,4.53
2023-05-04T01:33:45.075Z,5.07
2023-05-04T01:34:47.994Z,5.32
2023-05-04T01:35:50.714Z,5.57
2023-05-04T01:36:53.844Z,5.20
2023-05-04T01:37:56.454Z,5.05
2023-05-04T01:38:59.725Z,4.90
2023-05-04T01:40:02.175Z,4.70
2023-05-04T01:41:06.157Z,5.70
2023-05-04T01:42:08.498Z,5.45
2023-05-04T01:43:11.421Z,4.50
2023-05-04T01:44:14.465Z,4.70
2023-05-04T01:45:17.249Z,4.97
2023-05-04T01:46:20.865Z,4.22
2023-05-04T01:47:23.225Z,4.40
2023-05-04T01:48:26.806Z,4.30
2023-05-04T01:49:30.295Z,3.80
2023-05-04T01:50:32.600Z,4.35
2023-05-04T01:51:34.905Z,4.30
2023-05-04T01:52:37.256Z,4.85
2023-05-04T01:53:40.885Z,4.70
2023-05-04T01:54:43.147Z,3.95
2023-05-04T01:55:45.428Z,4.60
2023-05-04T01:56:47.693Z,4.55
2023-05-04T01:57:50.009Z,3.65
2023-05-04T01:58:53.794Z,3.60
2023-05-04T01:59:56.029Z,3.50
2023-05-04T02:00:59.398Z,3.28
2023-05-04T02:02:03.225Z,3.72
2023-05-04T02:03:05.725Z,3.88
2023-05-04T02:04:08.595Z,4.00
2023-05-04T02:05:13.965Z,3.25
2023-05-04T02:06:16.357Z,3.50
2023-05-04T02:07:18.662Z,3.65
2023-05-04T02:08:21.238Z,3.70
2023-05-04T02:09:23.676Z,4.10
2023-05-04T02:10:25.987Z,3.30
2023-05-04T02:11:29.169Z,3.40
2023-05-04T02:12:31.476Z,3.47
2023-05-04T02:13:34.380Z,3.40
2023-05-04T02:14:36.772Z,3.35
2023-05-04T02:15:39.748Z,3.40
2023-05-04T02:16:42.141Z,3.92
2023-05-04T02:17:44.556Z,3.97
2023-05-04T02:18:46.859Z,3.20
2023-05-04T02:19:51.421Z,4.00
2023-05-04T02:20:53.947Z,5.13
2023-05-04T02:21:56.364Z,3.97
2023-05-04T02:22:58.730Z,4.05
2023-05-04T02:24:01.524Z,3.60
2023-05-04T02:25:03.911Z,3.92
2023-05-04T02:26:07.141Z,4.00
2023-05-04T02:27:09.449Z,4.13
2023-05-04T02:28:11.698Z,3.63
2023-05-04T02:29:14.093Z,4.35
2023-05-04T02:30:16.502Z,3.70
2023-05-04T02:31:18.773Z,3.90
2023-05-04T02:32:21.233Z,4.07
2023-05-04T02:33:23.531Z,3.88
2023-05-04T02:34:25.961Z,5.03
2023-05-04T02:35:29.957Z,2.92
2023-05-04T02:36:32.193Z,3.70
2023-05-04T02:37:34.685Z,3.83
2023-05-04T02:38:39.115Z,3.83
2023-05-04T02:39:41.541Z,3.55
2023-05-04T02:40:43.885Z,3.70
2023-05-04T02:41:46.294Z,3.60
2023-05-04T02:42:48.599Z,3.95
2023-05-04T02:43:51.763Z,3.50
2023-05-04T02:44:53.984Z,4.47
2023-05-04T02:45:56.265Z,4.07
2023-05-04T02:46:58.754Z,4.28
2023-05-04T02:48:01.109Z,4.03
2023-05-04T02:49:03.494Z,4.03
2023-05-04T02:50:06.904Z,3.83
2023-05-04T02:51:09.352Z,3.92
2023-05-04T02:52:11.710Z,3.60
2023-05-04T02:53:13.950Z,3.50
2023-05-04T02:54:16.269Z,3.38
2023-05-04T02:55:19.308Z,3.83
2023-05-04T02:56:21.932Z,5.00
2023-05-04T02:57:24.213Z,4.05
2023-05-04T02:58:26.543Z,4.57
2023-05-04T02:59:28.900Z,4.85
2023-05-04T03:00:31.339Z,4.22
2023-05-04T03:01:34.850Z,5.60
2023-05-04T03:02:37.382Z,4.50
2023-05-04T03:03:39.643Z,5.05
2023-05-04T03:04:42.207Z,5.03
2023-05-04T03:05:44.604Z,4.93
2023-05-04T03:06:47.501Z,5.50
2023-05-04T03:07:50.593Z,5.60
2023-05-04T03:08:52.931Z,5.10
2023-05-04T03:09:55.256Z,5.15
2023-05-04T03:10:57.550Z,5.80
2023-05-04T03:11:59.963Z,5.45
2023-05-04T03:13:06.194Z,5.45
2023-05-04T03:14:08.625Z,6.00
2023-05-04T03:15:10.985Z,6.22
2023-05-04T03:16:13.432Z,6.55
2023-05-04T03:17:16.182Z,5.18
2023-05-04T03:18:18.437Z,5.57
2023-05-04T03:19:22.130Z,5.70
2023-05-04T03:20:24.943Z,5.65
2023-05-04T03:21:27.253Z,6.45
2023-05-04T03:22:29.600Z,4.85
2023-05-04T03:23:31.925Z,5.22
2023-05-04T03:24:34.495Z,5.45
2023-05-04T03:25:36.919Z,5.07
2023-05-04T03:26:39.314Z,5.30
2023-05-04T03:27:41.655Z,4.78
2023-05-04T03:28:44.028Z,4.78
2023-05-04T03:29:46.298Z,4.68
2023-05-04T03:30:48.602Z,5.40
2023-05-04T03:31:51.094Z,5.05
2023-05-04T03:32:53.603Z,6.25
2023-05-04T03:33:56.030Z,5.15
2023-05-04T03:34:58.753Z,5.35
2023-05-04T03:36:01.010Z,5.07
2023-05-04T03:37:03.735Z,5.55
2023-05-04T03:38:07.655Z,5.10
2023-05-04T03:39:09.934Z,4.80
2023-05-04T03:40:12.769Z,5.53
2023-05-04T03:41:16.273Z,5.15
2023-05-04T03:42:18.542Z,5.20
2023-05-04T03:43:22.364Z,5.20
2023-05-04T03:44:24.622Z,4.28
2023-05-04T03:45:28.603Z,4.70
2023-05-04T03:46:32.877Z,4.10
2023-05-04T03:47:35.436Z,4.63
2023-05-04T03:48:37.797Z,4.38
2023-05-04T03:49:42.083Z,4.85
2023-05-04T03:50:44.331Z,4.50
2023-05-04T03:51:46.630Z,4.90
2023-05-04T03:52:49.680Z,4.38
2023-05-04T03:53:54.459Z,4.22
2023-05-04T03:54:56.699Z,4.35
2023-05-04T03:55:58.982Z,3.90
2023-05-04T03:57:02.353Z,4.60
2023-05-04T03:58:04.903Z,4.13
2023-05-04T03:59:07.851Z,4.25
2023-05-04T04:00:10.974Z,4.22
2023-05-04T04:01:26.536Z,4.43
2023-05-04T04:02:29.037Z,5.18
2023-05-04T04:03:33.202Z,4.40
2023-05-04T04:04:35.699Z,3.90
2023-05-04T04:05:38.150Z,4.00
2023-05-04T04:06:42.633Z,4.47
2023-05-04T04:07:46.338Z,5.00
2023-05-04T04:08:48.650Z,5.30
2023-05-04T04:09:52.348Z,5.18
2023-05-04T04:10:54.640Z,5.93
2023-05-04T04:11:56.916Z,5.70
2023-05-04T04:12:59.247Z,5.20
2023-05-04T04:14:01.599Z,5.00
2023-05-04T04:15:04.347Z,5.03
2023-05-04T04:16:06.897Z,6.03
2023-05-04T04:17:09.217Z,5.38
2023-05-04T04:18:11.537Z,4.75
2023-05-04T04:19:13.901Z,4.80
2023-05-04T04:20:16.445Z,4.50
2023-05-04T04:21:18.726Z,4.10
2023-05-04T04:22:21.131Z,4.65
2023-05-04T04:23:23.682Z,6.07
2023-05-04T04:24:26.345Z,4.95
2023-05-04T04:25:28.683Z,6.00
2023-05-04T04:26:30.960Z,5.45
2023-05-04T04:27:33.275Z,4.70
2023-05-04T04:28:35.914Z,5.03
2023-05-04T04:29:39.610Z,4.95
2023-05-04T04:30:42.209Z,5.47
2023-05-04T04:31:44.583Z,4.70
2023-05-04T04:32:47.216Z,5.18
2023-05-04T04:33:51.358Z,5.65
2023-05-04T04:34:53.666Z,4.95
2023-05-04T04:35:56.702Z,4.22
2023-05-04T04:36:59.434Z,4.50
2023-05-04T04:38:03.789Z,4.13
2023-05-04T04:39:06.420Z,4.97
2023-05-04T04:40:10.212Z,4.72
2023-05-04T04:41:12.524Z,4.50
2023-05-04T04:42:14.775Z,4.30
2023-05-04T04:43:17.067Z,4.32
2023-05-04T04:44:20.831Z,3.92
2023-05-04T04:45:23.799Z,4.30
2023-05-04T04:46:26.064Z,3.80
2023-05-04T04:47:28.478Z,4.20
2023-05-04T04:48:31.441Z,3.97
2023-05-04T04:49:33.715Z,4.65
2023-05-04T04:50:39.234Z,4.35
2023-05-04T04:51:42.033Z,3.78
2023-05-04T04:52:44.296Z,3.85
2023-05-04T04:53:46.648Z,4.38
2023-05-04T04:54:48.892Z,3.58
2023-05-04T04:55:52.250Z,4.13
2023-05-04T04:56:55.037Z,3.95
2023-05-04T04:57:57.269Z,3.78
2023-05-04T04:58:59.763Z,3.83
2023-05-04T05:00:02.359Z,4.57
2023-05-04T05:01:05.798Z,4.95
2023-05-04T05:02:09.626Z,4.25
2023-05-04T05:03:11.940Z,3.42
2023-05-04T05:04:14.483Z,3.92
2023-05-04T05:05:17.109Z,4.00
2023-05-04T05:06:19.608Z,5.65
2023-05-04T05:07:21.976Z,3.58
2023-05-04T05:08:24.282Z,4.07
2023-05-04T05:09:26.621Z,4.22
2023-05-04T05:10:28.841Z,4.60
2023-05-04T05:11:32.277Z,3.50
2023-05-04T05:12:34.593Z,4.38
2023-05-04T05:13:36.868Z,5.00
2023-05-04T05:14:39.155Z,4.63
2023-05-04T05:15:41.670Z,5.32
2023-05-04T05:16:44.005Z,4.45
2023-05-04T05:17:46.419Z,5.18
2023-05-04T05:18:48.664Z,6.63
2023-05-04T05:19:50.936Z,5.00
2023-05-04T05:20:53.164Z,4.10
2023-05-04T05:21:57.379Z,5.05
2023-05-04T05:22:59.903Z,4.15
2023-05-04T05:24:02.824Z,4.25
2023-05-04T05:25:06.658Z,4.15
2023-05-04T05:26:09.541Z,4.40
2023-05-04T05:27:11.858Z,3.65
2023-05-04T05:28:14.411Z,3.97
2023-05-04T05:29:16.817Z,5.82
2023-05-04T05:30:19.214Z,4.75
2023-05-04T05:31:22.298Z,5.93
2023-05-04T05:32:24.817Z,8.30
2023-05-04T05:33:27.143Z,7.15
2023-05-04T05:34:29.732Z,6.15
2023-05-04T05:35:32.341Z,7.15
2023-05-04T05:36:34.641Z,6.30
2023-05-04T05:37:36.931Z,6.40
2023-05-04T05:38:39.225Z,6.47
2023-05-04T05:39:41.909Z,5.57
2023-05-04T05:40:44.487Z,6.30
2023-05-04T05:41:46.957Z,5.78
2023-05-04T05:42:49.701Z,4.85
2023-05-04T05:43:52.068Z,6.25
2023-05-04T05:44:54.358Z,4.47
2023-05-04T05:45:56.733Z,5.75
2023-05-04T05:46:59.247Z,6.03
2023-05-04T05:48:01.611Z,4.82
2023-05-04T05:49:06.020Z,5.53
2023-05-04T05:50:08.841Z,5.30
2023-05-04T05:51:11.168Z,5.30
2023-05-04T05:52:13.650Z,6.80
2023-05-04T05:53:15.919Z,5.82
2023-05-04T05:54:18.170Z,4.93
2023-05-04T05:55:20.700Z,6.45
2023-05-04T05:56:23.070Z,5.40
2023-05-04T05:57:25.345Z,4.95
2023-05-04T05:58:27.685Z,5.82
2023-05-04T05:59:29.977Z,5.63
2023-05-04T06:00:32.253Z,4.45
2023-05-04T06:01:34.601Z,5.93
2023-05-04T06:02:37.477Z,7.20
2023-05-04T06:03:39.895Z,4.63
2023-05-04T06:04:43.355Z,5.45
2023-05-04T06:05:45.722Z,4.53
2023-05-04T06:06:48.452Z,4.72
2023-05-04T06:07:50.724Z,5.30
2023-05-04T06:08:53.046Z,5.35
2023-05-04T06:09:55.486Z,5.05
2023-05-04T06:10:57.770Z,5.43
2023-05-04T06:12:00.463Z,4.68
2023-05-04T06:13:02.717Z,4.28
2023-05-04T06:14:05.032Z,6.40
2023-05-04T06:15:08.347Z,5.90
2023-05-04T06:16:10.889Z,6.18
2023-05-04T06:17:13.186Z,4.55
2023-05-04T06:18:15.928Z,5.68
2023-05-04T06:19:18.372Z,4.35
2023-05-04T06:20:20.749Z,5.63
2023-05-04T06:21:23.069Z,5.40
2023-05-04T06:22:25.381Z,7.13
2023-05-04T06:23:29.855Z,8.15
2023-05-04T06:24:33.024Z,5.30
2023-05-04T06:25:35.260Z,4.90
2023-05-04T06:26:37.637Z,6.07
2023-05-04T06:27:39.971Z,5.05
2023-05-04T06:28:42.243Z,7.35
2023-05-04T06:29:44.880Z,5.50
2023-05-04T06:30:47.242Z,5.97
2023-05-04T06:31:49.769Z,5.40
2023-05-04T06:32:52.091Z,6.15
2023-05-04T06:33:54.352Z,7.28
2023-05-04T06:34:56.815Z,6.18
2023-05-04T06:35:59.183Z,9.05
2023-05-04T06:37:01.559Z,8.80
2023-05-04T06:38:04.252Z,7.20
2023-05-04T06:39:06.809Z,8.98
2023-05-04T06:40:09.753Z,7.32
2023-05-04T06:41:12.655Z,7.05
2023-05-04T06:42:15.018Z,6.50
2023-05-04T06:43:17.974Z,6.55
2023-05-04T06:44:20.293Z,6.20
2023-05-04T06:45:22.502Z,6.93
2023-05-04T06:46:24.899Z,5.60
2023-05-04T06:47:27.270Z,7.70
2023-05-04T06:48:30.685Z,6.22
2023-05-04T06:49:33.837Z,6.35
2023-05-04T06:50:36.261Z,5.95
2023-05-04T06:51:39.487Z,6.18
2023-05-04T06:52:44.858Z,5.65
2023-05-04T06:53:47.725Z,6.28
2023-05-04T06:54:50.417Z,7.18
2023-05-04T06:55:52.767Z,6.85
2023-05-04T06:56:55.088Z,6.45
2023-05-04T06:57:57.338Z,5.00
2023-05-04T06:59:00.015Z,5.63
2023-05-04T07:00:04.530Z,5.88
2023-05-04T07:01:09.265Z,10.60
2023-05-04T07:02:11.865Z,8.27
2023-05-04T07:03:14.271Z,7.70
2023-05-04T07:04:17.106Z,7.63
2023-05-04T07:05:23.001Z,8.43
2023-05-04T07:06:29.531Z,9.57
2023-05-04T07:07:31.823Z,8.43
2023-05-04T07:08:34.919Z,7.05
2023-05-04T07:09:37.197Z,8.52
2023-05-04T07:10:39.564Z,7.07
2023-05-04T07:11:42.097Z,6.15
2023-05-04T07:12:44.341Z,6.30
2023-05-04T07:13:47.013Z,6.55
2023-05-04T07:14:49.329Z,7.00
2023-05-04T07:15:51.881Z,6.53
2023-05-04T07:16:54.095Z,6.00
2023-05-04T07:17:56.524Z,7.05
2023-05-04T07:18:58.979Z,6.80
2023-05-04T07:20:03.357Z,4.85
2023-05-04T07:21:26.739Z,5.57
2023-05-04T07:22:32.874Z,6.63
2023-05-04T07:23:35.096Z,5.45
2023-05-04T07:24:37.733Z,5.13
2023-05-04T07:25:41.662Z,6.07
2023-05-04T07:26:44.010Z,6.70
2023-05-04T07:27:46.502Z,5.85
2023-05-04T07:28:48.828Z,4.65
2023-05-04T07:29:51.216Z,7.00
2023-05-04T07:30:53.521Z,5.35
2023-05-04T07:31:55.944Z,6.97
2023-05-04T07:32:58.278Z,6.90
2023-05-04T07:34:01.276Z,5.32
2023-05-04T07:35:03.760Z,5.57
2023-05-04T07:36:06.865Z,4.60
2023-05-04T07:37:09.361Z,4.43
2023-05-04T07:38:11.644Z,5.05
2023-05-04T07:39:14.205Z,5.50
2023-05-04T07:40:16.706Z,4.15
2023-05-04T07:41:19.125Z,4.57
2023-05-04T07:42:23.535Z,6.25
2023-05-04T07:43:25.954Z,6.00
2023-05-04T07:44:28.242Z,5.50
2023-05-04T07:45:30.528Z,6.15
2023-05-04T07:46:32.839Z,6.03
2023-05-04T07:47:36.585Z,4.95
2023-05-04T07:48:38.999Z,4.88
2023-05-04T07:49:41.288Z,5.68
2023-05-04T07:50:43.828Z,5.53
2023-05-04T07:51:46.563Z,4.10
2023-05-04T07:52:49.394Z,4.45
2023-05-04T07:53:51.953Z,3.83
2023-05-04T07:54:54.609Z,3.65
2023-05-04T07:56:01.010Z,3.55
2023-05-04T07:57:03.734Z,5.45
2023-05-04T07:58:06.699Z,3.70
2023-05-04T07:59:09.873Z,4.05
2023-05-04T08:00:12.648Z,4.45
2023-05-04T08:01:17.609Z,3.83
2023-05-04T08:02:20.049Z,3.78
2023-05-04T08:03:22.449Z,3.70
2023-05-04T08:04:25.060Z,4.32
2023-05-04T08:05:27.364Z,3.60
2023-05-04T08:06:29.886Z,3.50
2023-05-04T08:07:32.175Z,4.05
2023-05-04T08:08:34.406Z,4.18
2023-05-04T08:09:36.728Z,3.13
2023-05-04T08:10:39.057Z,4.45
2023-05-04T08:11:41.667Z,4.35
2023-05-04T08:12:44.121Z,3.63
2023-05-04T08:13:47.824Z,3.25
2023-05-04T08:14:50.112Z,3.83
2023-05-04T08:15:52.625Z,3.55
2023-05-04T08:16:55.049Z,3.75
2023-05-04T08:17:57.559Z,2.78
2023-05-04T08:19:01.399Z,3.08
2023-05-04T08:20:04.519Z,3.42
2023-05-04T08:21:07.256Z,2.83
2023-05-04T08:22:10.446Z,3.53
2023-05-04T08:23:12.733Z,3.03
2023-05-04T08:24:15.188Z,3.20
2023-05-04T08:25:18.567Z,3.75
2023-05-04T08:26:20.928Z,3.65
2023-05-04T08:27:23.279Z,2.90
2023-05-04T08:28:25.499Z,3.47
2023-05-04T08:29:28.449Z,2.70
2023-05-04T08:30:31.646Z,3.20
2023-05-04T08:31:34.560Z,3.05
2023-05-04T08:32:37.187Z,2.67
2023-05-04T08:33:39.463Z,3.25
2023-05-04T08:34:41.832Z,4.60
2023-05-04T08:35:44.147Z,3.63
2023-05-04T08:36:47.125Z,3.22
2023-05-04T08:37:49.381Z,2.95
2023-05-04T08:38:53.551Z,2.78
2023-05-04T08:39:56.148Z,2.75
2023-05-04T08:40:58.739Z,3.92
2023-05-04T08:42:02.209Z,3.88
2023-05-04T08:43:04.603Z,3.50
2023-05-04T08:44:10.849Z,4.22
2023-05-04T08:45:13.445Z,5.35
2023-05-04T08:46:18.745Z,5.07
2023-05-04T08:47:21.572Z,4.00
2023-05-04T08:48:23.811Z,4.22
2023-05-04T08:49:29.154Z,7.68
2023-05-04T08:50:33.776Z,3.25
2023-05-04T08:51:37.379Z,2.72
2023-05-04T08:52:47.276Z,2.60
2023-05-04T08:53:50.751Z,2.85
2023-05-04T08:54:57.712Z,3.30
2023-05-04T08:56:04.674Z,2.90
2023-05-04T08:57:07.366Z,2.90
2023-05-04T08:58:13.604Z,3.00
2023-05-04T08:59:20.912Z,3.97
2023-05-04T09:00:23.618Z,3.30
2023-05-04T09:01:26.550Z,3.03
2023-05-04T09:02:29.762Z,3.25
2023-05-04T09:03:32.483Z,4.10
2023-05-04T09:04:35.063Z,3.35
2023-05-04T09:05:38.475Z,3.53
2023-05-04T09:06:40.770Z,2.70
2023-05-04T09:07:43.052Z,4.10
2023-05-04T09:08:46.873Z,3.80
2023-05-04T09:09:51.698Z,3.30
2023-05-04T09:10:54.034Z,3.47
2023-05-04T09:11:56.331Z,2.90
2023-05-04T09:12:58.619Z,2.47
2023-05-04T09:14:00.958Z,2.88
2023-05-04T09:15:24.473Z,2.70
2023-05-04T09:16:35.234Z,3.30
2023-05-04T09:17:44.606Z,6.30
2023-05-04T09:18:53.433Z,3.90
2023-05-04T09:20:01.164Z,4.43
2023-05-04T09:21:03.701Z,3.55
2023-05-04T09:22:19.288Z,3.72
2023-05-04T09:23:22.491Z,3.63
2023-05-04T09:24:30.932Z,3.50
2023-05-04T09:25:34.607Z,3.10
2023-05-04T09:26:37.582Z,2.60
2023-05-04T09:27:42.784Z,5.25
2023-05-04T09:28:45.189Z,3.42
2023-05-04T09:29:53.906Z,4.65
2023-05-04T09:31:00.627Z,4.63
2023-05-04T09:32:04.855Z,3.50
2023-05-04T09:33:07.226Z,4.18
2023-05-04T09:34:10.176Z,3.33
2023-05-04T09:35:18.886Z,2.80
2023-05-04T09:36:31.877Z,2.60
2023-05-04T09:37:44.680Z,2.97
2023-05-04T09:38:47.401Z,3.40
2023-05-04T09:39:59.117Z,2.97
2023-05-04T09:41:01.655Z,2.78
2023-05-04T09:42:05.894Z,5.03
2023-05-04T09:43:08.716Z,3.78
2023-05-04T09:44:22.519Z,3.17
2023-05-04T09:45:25.127Z,2.90
2023-05-04T09:46:27.616Z,4.13
2023-05-04T09:47:34.737Z,3.08
2023-05-04T09:48:37.079Z,8.55
2023-05-04T09:49:39.910Z,5.55
2023-05-04T09:50:57.291Z,4.05
2023-05-04T09:52:03.818Z,4.10
2023-05-04T09:53:07.430Z,3.00
2023-05-04T09:54:11.629Z,3.65
2023-05-04T09:55:16.439Z,2.55
2023-05-04T09:56:25.224Z,2.70
2023-05-04T09:57:27.678Z,2.03
2023-05-04T09:58:31.238Z,2.60
2023-05-04T09:59:34.151Z,2.22
2023-05-04T10:00:36.821Z,2.13
2023-05-04T10:01:39.342Z,3.08
2023-05-04T10:02:43.769Z,2.97
2023-05-04T10:03:46.516Z,2.90
2023-05-04T10:04:50.957Z,2.67
2023-05-04T10:05:54.338Z,2.80
2023-05-04T10:06:56.955Z,2.90
2023-05-04T10:08:01.392Z,4.28
2023-05-04T10:09:04.601Z,2.15
2023-05-04T10:10:08.060Z,2.00
2023-05-04T10:11:11.225Z,2.10
2023-05-04T10:12:14.554Z,2.63
2023-05-04T10:13:17.362Z,2.80
2023-05-04T10:14:19.676Z,2.80
2023-05-04T10:15:23.578Z,2.47
2023-05-04T10:16:41.132Z,2.50
2023-05-04T10:17:55.144Z,3.13
2023-05-04T10:19:15.398Z,2.22
2023-05-04T10:20:55.357Z,2.30
2023-05-04T10:22:35.126Z,2.30
2023-05-04T10:23:53.492Z,2.60
2023-05-04T10:25:19.345Z,2.60
2023-05-04T10:26:31.125Z,2.70
2023-05-04T10:28:09.404Z,2.67
2023-05-04T10:29:23.477Z,2.90
2023-05-04T10:30:26.356Z,3.67
2023-05-04T10:31:40.894Z,2.50
2023-05-04T10:32:43.451Z,2.50
2023-05-04T10:33:46.113Z,2.60
2023-05-04T10:34:48.892Z,2.03
2023-05-04T10:35:54.853Z,2.92
2023-05-04T10:36:58.968Z,3.20
2023-05-04T10:38:01.351Z,3.65
2023-05-04T10:39:04.238Z,3.35
2023-05-04T10:40:08.220Z,2.87
2023-05-04T10:41:17.621Z,2.03
2023-05-04T10:42:20.718Z,2.17
2023-05-04T10:43:26.337Z,2.60
2023-05-04T10:44:30.254Z,2.40
2023-05-04T10:45:42.834Z,2.33
2023-05-04T10:46:45.105Z,2.30
2023-05-04T10:47:58.254Z,2.50
2023-05-04T10:49:01.363Z,2.03
2023-05-04T10:50:08.231Z,2.40
2023-05-04T10:51:21.352Z,2.50
2023-05-04T10:52:23.639Z,2.80
2023-05-04T10:53:33.305Z,2.50
2023-05-04T10:54:40.903Z,2.33
2023-05-04T10:55:47.784Z,3.70
2023-05-04T10:57:02.372Z,3.73
2023-05-04T10:58:04.793Z,3.10
2023-05-04T10:59:10.603Z,2.90
2023-05-04T11:00:13.741Z,2.10
2023-05-04T11:01:17.017Z,2.20
2023-05-04T11:02:26.597Z,2.50
2023-05-04T11:03:40.946Z,2.50
2023-05-04T11:04:43.377Z,2.27
2023-05-04T11:05:47.694Z,2.50
2023-05-04T11:07:01.786Z,3.30
2023-05-04T11:08:24.948Z,3.40
2023-05-04T11:09:28.648Z,1.97
2023-05-04T11:10:31.062Z,2.60
2023-05-04T11:11:37.565Z,2.20
2023-05-04T11:12:39.925Z,2.70
2023-05-04T11:13:48.187Z,2.30
2023-05-04T11:14:50.788Z,2.70
2023-05-04T11:15:53.909Z,2.87
2023-05-04T11:17:27.286Z,3.00
2023-05-04T11:18:34.479Z,2.70
2023-05-04T11:19:47.177Z,2.80
2023-05-04T11:20:49.451Z,2.10
2023-05-04T11:21:51.776Z,2.60
2023-05-04T11:22:54.943Z,4.50
2023-05-04T11:23:58.524Z,2.17
2023-05-04T11:25:00.914Z,2.17
2023-05-04T11:26:09.182Z,2.47
2023-05-04T11:27:41.743Z,3.58
2023-05-04T11:28:44.260Z,2.73
2023-05-04T11:29:57.120Z,2.60
2023-05-04T11:30:59.373Z,2.30
2023-05-04T11:32:02.524Z,1.90
2023-05-04T11:33:12.460Z,2.00
2023-05-04T11:34:20.478Z,2.17
2023-05-04T11:35:23.209Z,2.00
2023-05-04T11:36:25.822Z,2.17
2023-05-04T11:37:37.931Z,2.30
2023-05-04T11:38:40.318Z,5.37
2023-05-04T11:39:42.920Z,4.70
2023-05-04T11:40:48.168Z,4.40
2023-05-04T11:41:50.512Z,3.47
2023-05-04T11:42:58.163Z,4.00
2023-05-04T11:44:01.775Z,4.83
2023-05-04T11:45:04.915Z,3.60
2023-05-04T11:46:08.030Z,3.20
2023-05-04T11:47:10.530Z,2.90
2023-05-04T11:48:13.489Z,2.80
2023-05-04T11:49:15.835Z,2.80
2023-05-04T11:50:20.585Z,5.10
2023-05-04T11:51:24.570Z,3.50
2023-05-04T11:52:30.326Z,3.40
2023-05-04T11:53:39.271Z,3.63
2023-05-04T11:54:42.660Z,5.90
2023-05-04T11:55:45.295Z,3.87
2023-05-04T11:56:47.659Z,4.43
2023-05-04T11:58:03.441Z,4.00
2023-05-04T11:59:10.686Z,4.80
2023-05-04T12:00:13.502Z,3.73
2023-05-04T12:01:16.040Z,3.97
2023-05-04T12:02:18.586Z,5.80
2023-05-04T12:04:39.817Z,3.80
2023-05-04T12:05:50.160Z,4.60
2023-05-04T12:06:52.591Z,4.20
2023-05-04T12:07:54.833Z,4.43
2023-05-04T12:09:05.947Z,3.50
2023-05-04T12:10:08.542Z,3.50
2023-05-04T12:11:25.134Z,3.42
2023-05-04T12:12:35.723Z,3.47
2023-05-04T12:13:39.003Z,2.93
2023-05-04T12:14:54.577Z,2.47
2023-05-04T12:15:56.990Z,2.50
2023-05-04T12:17:02.940Z,2.40
2023-05-04T12:18:05.552Z,2.47
2023-05-04T12:19:13.130Z,2.03
2023-05-04T12:20:26.308Z,2.27
2023-05-04T12:21:28.824Z,2.27
2023-05-04T12:22:33.061Z,2.27
2023-05-04T12:23:36.785Z,2.50
2023-05-04T12:24:39.859Z,2.53
2023-05-04T12:25:54.751Z,2.80
2023-05-04T12:27:00.415Z,2.53
2023-05-04T12:28:03.118Z,2.70
2023-05-04T12:29:05.425Z,4.73
2023-05-04T12:30:08.367Z,3.30
2023-05-04T12:31:10.660Z,3.03
2023-05-04T12:32:12.958Z,3.00
2023-05-04T12:33:16.016Z,4.03
2023-05-04T12:34:18.310Z,2.80
2023-05-04T12:35:20.613Z,5.43
2023-05-04T12:36:22.988Z,5.70
2023-05-04T12:37:25.373Z,3.47
2023-05-04T12:38:28.298Z,4.77
2023-05-04T12:39:32.622Z,6.17
2023-05-04T12:40:35.029Z,3.13
2023-05-04T12:41:37.650Z,3.30
2023-05-04T12:42:42.289Z,3.50
2023-05-04T12:43:44.802Z,2.87
2023-05-04T12:44:47.167Z,3.63
2023-05-04T12:45:50.735Z,4.67
2023-05-04T12:46:53.918Z,4.87
2023-05-04T12:47:56.295Z,3.73
2023-05-04T12:48:58.812Z,3.20
2023-05-04T12:50:03.761Z,3.20
2023-05-04T12:51:06.177Z,3.30
2023-05-04T12:52:09.117Z,2.57
2023-05-04T12:53:11.472Z,2.33
2023-05-04T12:54:13.725Z,2.30
2023-05-04T12:55:16.143Z,2.73
2023-05-04T12:56:18.477Z,2.00
2023-05-04T12:57:20.797Z,4.07
2023-05-04T12:58:23.100Z,3.23
2023-05-04T12:59:26.500Z,4.40
2023-05-04T13:00:31.315Z,2.63
2023-05-04T13:01:33.861Z,2.50
2023-05-04T13:02:36.246Z,2.20
2023-05-04T13:03:38.709Z,2.63
2023-05-04T13:04:41.047Z,2.03
2023-05-04T13:05:44.312Z,1.93
2023-05-04T13:06:48.455Z,2.37
2023-05-04T13:07:51.916Z,2.27
2023-05-04T13:08:54.216Z,2.00
2023-05-04T13:09:56.510Z,2.00
2023-05-04T13:10:58.816Z,2.63
2023-05-04T13:12:02.429Z,2.30
2023-05-04T13:13:07.636Z,2.60
2023-05-04T13:14:09.947Z,3.00
2023-05-04T13:15:12.974Z,2.53
2023-05-04T13:16:15.246Z,3.37
2023-05-04T13:17:19.174Z,2.73
2023-05-04T13:18:24.000Z,2.40
2023-05-04T13:19:27.390Z,2.30
2023-05-04T13:20:30.035Z,1.90
2023-05-04T13:21:32.378Z,2.43
2023-05-04T13:22:35.091Z,2.83
2023-05-04T13:23:37.393Z,2.87
2023-05-04T13:24:39.664Z,2.13
2023-05-04T13:25:42.233Z,2.63
2023-05-04T13:26:45.039Z,2.50
2023-05-04T13:27:47.366Z,2.13
2023-05-04T13:28:51.446Z,2.20
2023-05-04T13:29:53.867Z,3.03
2023-05-04T13:30:56.558Z,2.53
2023-05-04T13:31:59.763Z,2.33
2023-05-04T13:33:07.644Z,2.60
2023-05-04T13:34:16.140Z,2.97
2023-05-04T13:35:18.403Z,2.90
2023-05-04T13:36:20.662Z,4.30
2023-05-04T13:37:23.417Z,2.60
2023-05-04T13:38:26.689Z,2.30
2023-05-04T13:39:29.016Z,2.67
2023-05-04T13:40:31.563Z,3.33
2023-05-04T13:41:33.786Z,2.00
2023-05-04T13:42:37.459Z,2.83
2023-05-04T13:43:40.045Z,1.90
2023-05-04T13:44:45.075Z,1.80
2023-05-04T13:45:48.241Z,2.00
2023-05-04T13:46:50.569Z,2.00
2023-05-04T13:47:53.702Z,2.60
2023-05-04T13:48:57.198Z,3.70
2023-05-04T13:49:59.570Z,3.23
2023-05-04T13:51:03.897Z,3.00
2023-05-04T13:52:06.642Z,2.57
2023-05-04T13:53:11.195Z,3.30
2023-05-04T13:54:13.884Z,3.07
2023-05-04T13:55:18.857Z,2.70
2023-05-04T13:56:21.169Z,5.27
2023-05-04T13:57:23.882Z,3.20
2023-05-04T13:58:26.118Z,2.40
2023-05-04T13:59:29.101Z,3.00
2023-05-04T14:00:31.442Z,3.50
2023-05-04T14:01:33.826Z,3.50
2023-05-04T14:02:36.192Z,3.13
2023-05-04T14:03:38.624Z,4.23
2023-05-04T14:04:44.360Z,4.00
2023-05-04T14:05:46.738Z,3.57
2023-05-04T14:06:51.916Z,3.10
2023-05-04T14:07:54.193Z,3.40
2023-05-04T14:08:56.570Z,3.37
2023-05-04T14:09:59.149Z,2.70
2023-05-04T14:11:01.433Z,2.73
2023-05-04T14:12:04.436Z,2.00
2023-05-04T14:13:07.031Z,2.40
2023-05-04T14:14:09.671Z,2.30